Time;durP1;ratioP1;P1;durP2;ratioP2;P2;SDS_P1;SDS_P2;PMS_P1;PMS_P2;Temp;Humidity;BMP_temperature;BMP_pressure;BME280_temperature;BME280_humidity;BME280_pressure;Samples;Min_cycle;Max_cycle;Signal;HPM_P1;HPM_P2
2022/10/30 00:02:01;;;;;;;;;11.75;10.75;;;;;19.34;61.23;101291.31;5048087;28;45440;-69
2022/10/30 00:04:26;;;;;;;;;9.50;8.00;;;;;19.55;61.70;101334.53;5052623;28;45549;-69
2022/10/30 00:06:52;;;;;;;;;8.00;8.00;;;;;19.39;62.06;101307.97;5050811;28;45352;-69
2022/10/30 00:09:17;;;;;;;;;1.50;1.00;;;;;19.52;61.19;101328.56;5043320;28;45509;-69
2022/10/30 00:11:42;;;;;;;;;7.25;7.25;;;;;19.50;61.61;101328.69;5041559;28;47253;-68
2022/10/30 00:14:07;;;;;;;;;9.25;9.00;;;;;19.44;61.38;101327.38;5042407;28;45441;-69
2022/10/30 00:16:33;;;;;;;;;8.75;8.00;;;;;19.52;62.13;101333.97;5043830;28;45686;-69
2022/10/30 00:18:59;;;;;;;;;7.50;7.50;;;;;19.02;61.48;101257.13;5043543;28;45585;-68
2022/10/30 00:21:24;;;;;;;;;8.50;8.50;;;;;19.44;62.28;101329.25;5041660;28;46118;-68
2022/10/30 00:23:52;;;;;;;;;12.00;10.00;;;;;19.43;61.74;101331.06;5042319;28;45548;-68
2022/10/30 00:26:20;;;;;;;;;10.00;9.00;;;;;19.20;61.91;101297.09;5058961;28;45433;-69
2022/10/30 00:28:54;;;;;;;;;8.25;8.25;;;;;19.39;62.47;101324.22;5041966;28;45636;-68
2022/10/30 00:31:21;;;;;;;;;7.50;7.50;;;;;19.41;62.50;101326.78;5041018;28;45942;-69
2022/10/30 00:33:53;;;;;;;;;10.75;9.00;;;;;19.39;62.35;101323.38;5042272;28;46338;-68
2022/10/30 00:36:20;;;;;;;;;6.75;6.75;;;;;19.38;62.57;101322.53;5043357;28;45609;-68
2022/10/30 00:38:46;;;;;;;;;10.50;9.75;;;;;19.37;62.91;101317.22;5041835;28;45554;-68
2022/10/30 00:41:19;;;;;;;;;9.00;9.00;;;;;18.89;62.57;101245.69;5044009;28;46325;-69
2022/10/30 00:43:45;;;;;;;;;8.00;7.00;;;;;19.33;62.58;101317.50;5041605;28;45837;-69
2022/10/30 00:46:43;;;;;;;;;7.75;7.25;;;;;19.33;62.82;101322.91;5042281;28;46291;-69
2022/10/30 00:49:14;;;;;;;;;8.50;8.00;;;;;19.33;62.69;101327.47;5038173;28;45656;-69
2022/10/30 00:51:45;;;;;;;;;9.75;9.25;;;;;19.30;63.05;101327.72;5041064;28;47493;-69
2022/10/30 00:54:12;;;;;;;;;10.50;9.25;;;;;19.30;63.20;101331.31;5040544;28;45723;-69
2022/10/30 00:56:37;;;;;;;;;11.50;10.00;;;;;19.26;62.83;101337.09;5043351;28;45412;-69
2022/10/30 00:59:09;;;;;;;;;13.25;11.75;;;;;18.89;62.78;101267.31;5043607;28;45430;-69
2022/10/30 01:01:41;;;;;;;;;11.75;11.75;;;;;19.23;62.95;101323.84;5042489;28;45545;-69
2022/10/30 01:04:06;;;;;;;;;12.25;11.00;;;;;18.70;63.17;101244.53;5041642;28;45523;-69
2022/10/30 01:06:37;;;;;;;;;13.25;12.25;;;;;19.22;62.71;101332.94;5041389;28;45500;-67
2022/10/30 01:09:03;;;;;;;;;14.75;12.25;;;;;19.21;62.94;101334.81;5039786;28;45420;-67
2022/10/30 01:11:29;;;;;;;;;10.00;10.00;;;;;18.74;63.22;101259.47;5041246;28;46520;-69
2022/10/30 01:14:00;;;;;;;;;5.50;4.50;;;;;19.17;62.95;101328.78;5040682;28;45632;-69
2022/10/30 01:17:10;;;;;;;;;14.50;11.25;;;;;19.16;63.44;101328.94;5037646;28;45437;-68
2022/10/30 01:19:56;;;;;;;;;11.75;8.50;;;;;18.73;63.27;101284.78;5045990;28;45415;-68
2022/10/30 01:22:21;;;;;;;;;10.75;10.75;;;;;19.14;63.21;101334.47;5044282;28;45587;-69
2022/10/30 01:25:02;;;;;;;;;11.00;8.50;;;;;19.12;63.51;101331.03;5041002;28;45597;-69
2022/10/30 01:27:46;;;;;;;;;11.75;11.75;;;;;19.11;63.15;101337.44;5041233;28;45413;-69
2022/10/30 01:30:53;;;;;;;;;10.25;10.25;;;;;19.13;63.38;101343.56;5041365;28;45415;-68
2022/10/30 01:33:43;;;;;;;;;9.25;8.00;;;;;19.13;63.83;101338.16;5041585;28;45467;-67
2022/10/30 01:36:36;;;;;;;;;9.50;9.50;;;;;19.11;63.88;101329.34;5046133;28;45533;-68
2022/10/30 01:39:24;;;;;;;;;11.75;10.25;;;;;19.09;63.70;101328.59;5042080;28;45603;-68
2022/10/30 01:41:49;;;;;;;;;13.25;10.75;;;;;19.03;63.92;101318.34;5040752;28;45556;-67
2022/10/30 01:44:20;;;;;;;;;11.25;9.25;;;;;19.06;63.88;101326.16;5041718;28;46103;-67
2022/10/30 01:47:19;;;;;;;;;7.75;7.75;;;;;19.04;64.01;101327.28;5040541;28;45450;-67
2022/10/30 01:50:06;;;;;;;;;9.25;9.25;;;;;19.02;63.95;101324.72;5040513;28;45443;-68
2022/10/30 01:52:58;;;;;;;;;14.75;13.75;;;;;18.97;63.75;101313.44;5041807;28;45398;-68
2022/10/30 01:55:47;;;;;;;;;13.25;12.75;;;;;18.97;64.18;101311.59;5038968;28;46174;-67
2022/10/30 01:58:27;;;;;;;;;13.50;11.00;;;;;19.00;64.04;101313.16;5046771;28;45585;-69
2022/10/30 02:00:57;;;;;;;;;10.00;10.00;;;;;18.98;64.01;101307.06;5041287;28;45499;-69
2022/10/30 02:03:25;;;;;;;;;10.00;9.00;;;;;19.01;64.16;101304.06;5039319;28;45634;-69
2022/10/30 02:05:51;;;;;;;;;9.75;7.25;;;;;19.03;64.16;101307.53;5043320;28;45689;-69
2022/10/30 02:08:18;;;;;;;;;16.25;11.25;;;;;19.03;64.08;101307.53;5042904;28;45478;-69
2022/10/30 02:10:46;;;;;;;;;12.75;11.00;;;;;19.01;64.22;101304.06;5045130;28;45456;-69
2022/10/30 02:13:11;;;;;;;;;11.25;11.25;;;;;19.04;64.22;101309.22;5044730;28;45503;-69
2022/10/30 02:15:37;;;;;;;;;10.25;9.25;;;;;18.90;64.48;101275.28;5042923;28;46341;-69
2022/10/30 02:18:03;;;;;;;;;10.00;10.00;;;;;19.02;64.42;101300.41;5043174;28;45466;-69
2022/10/30 02:20:29;;;;;;;;;11.50;10.00;;;;;19.06;63.77;101299.13;5044359;28;45400;-69
2022/10/30 02:22:55;;;;;;;;;12.00;9.75;;;;;19.05;64.09;101299.28;5044997;28;45365;-68
2022/10/30 02:25:21;;;;;;;;;13.25;10.00;;;;;19.04;64.04;101300.25;5042936;28;45999;-68
2022/10/30 02:27:46;;;;;;;;;8.25;7.75;;;;;18.93;63.96;101274.16;5044434;28;45484;-68
2022/10/30 02:30:12;;;;;;;;;12.25;10.50;;;;;19.11;63.82;101301.44;5042772;28;45392;-68
2022/10/30 02:32:37;;;;;;;;;11.50;10.25;;;;;19.06;63.80;101296.44;5041847;28;45564;-68
2022/10/30 02:35:03;;;;;;;;;7.75;7.75;;;;;19.16;63.93;101296.47;5044729;28;46670;-68
2022/10/30 02:37:29;;;;;;;;;11.75;8.75;;;;;19.10;63.59;101291.63;5043942;28;45582;-68
2022/10/30 02:39:55;;;;;;;;;10.50;8.75;;;;;19.20;64.04;101306.03;5043055;28;45905;-68
2022/10/30 02:42:22;;;;;;;;;10.50;8.75;;;;;19.22;63.76;101305.91;5044863;28;45506;-67
2022/10/30 02:44:47;;;;;;;;;10.25;9.00;;;;;19.17;64.41;101290.94;5043269;28;45412;-68
2022/10/30 02:47:12;;;;;;;;;10.75;9.75;;;;;19.10;64.33;101281.66;5043238;28;45420;-68
2022/10/30 02:49:38;;;;;;;;;9.25;9.00;;;;;19.20;63.94;101288.97;5060415;28;45432;-68
2022/10/30 02:52:05;;;;;;;;;11.00;10.00;;;;;19.15;64.35;101290.22;5042852;28;45618;-68
2022/10/30 02:54:31;;;;;;;;;11.00;9.00;;;;;19.22;64.27;101290.56;5043315;28;45645;-68
2022/10/30 02:56:56;;;;;;;;;8.00;7.75;;;;;19.19;64.08;101279.13;5043106;28;45998;-68
2022/10/30 02:59:21;;;;;;;;;11.75;10.75;;;;;18.80;64.02;101223.84;5042843;28;45647;-70
2022/10/30 03:01:47;;;;;;;;;11.25;10.50;;;;;19.21;64.49;101291.53;5043629;28;45425;-69
2022/10/30 03:04:12;;;;;;;;;5.50;5.00;;;;;18.37;64.41;101159.13;5045436;28;45574;-70
2022/10/30 03:06:37;;;;;;;;;9.25;8.00;;;;;19.16;64.55;101296.47;5040489;28;45471;-70
2022/10/30 03:09:03;;;;;;;;;11.00;9.00;;;;;18.82;64.16;101240.75;5054597;28;45842;-70
2022/10/30 03:11:28;;;;;;;;;10.00;8.75;;;;;19.09;64.03;101287.19;5054855;28;45353;-70
2022/10/30 03:13:54;;;;;;;;;15.50;12.50;;;;;19.09;64.52;101296.16;5054637;28;45491;-70
2022/10/30 03:16:22;;;;;;;;;8.25;8.00;;;;;19.07;64.20;101292.75;5053948;28;45560;-70
2022/10/30 03:18:50;;;;;;;;;8.50;8.25;;;;;19.04;64.33;101287.59;5055150;28;45599;-70
2022/10/30 03:21:19;;;;;;;;;9.75;9.75;;;;;18.89;64.32;101261.91;5054311;28;45490;-70
2022/10/30 03:23:45;;;;;;;;;9.75;9.75;;;;;18.99;64.49;101279.03;5054526;28;45572;-70
2022/10/30 03:26:11;;;;;;;;;8.25;8.25;;;;;18.96;64.30;101285.56;5019378;28;45466;-70
2022/10/30 03:28:36;;;;;;;;;9.00;8.00;;;;;18.94;64.41;101281.28;5047380;28;45540;-70
2022/10/30 03:31:07;;;;;;;;;13.25;9.00;;;;;18.91;65.00;101271.59;5032951;28;45397;-70
2022/10/30 03:33:32;;;;;;;;;8.00;8.00;;;;;18.88;65.03;101269.16;5034448;28;45752;-70
2022/10/30 03:35:58;;;;;;;;;11.00;11.00;;;;;18.82;65.01;101267.78;5034289;28;45468;-70
2022/10/30 03:38:24;;;;;;;;;8.25;8.25;;;;;18.80;65.18;101264.38;5034404;28;45577;-70
2022/10/30 03:40:49;;;;;;;;;12.00;9.00;;;;;18.52;65.09;101211.84;5034694;28;45517;-70
2022/10/30 03:43:15;;;;;;;;;13.25;11.50;;;;;18.84;65.46;101267.66;5037143;28;47435;-70
2022/10/30 03:45:46;;;;;;;;;12.75;11.75;;;;;18.74;65.19;101259.47;5043596;28;45796;-70
2022/10/30 03:48:11;;;;;;;;;12.00;10.00;;;;;18.67;65.32;101258.31;5033972;28;45438;-70
2022/10/30 03:50:36;;;;;;;;;11.00;9.00;;;;;18.82;65.92;101261.53;5033802;28;45464;-70
2022/10/30 03:53:02;;;;;;;;;12.75;10.50;;;;;18.82;65.98;101262.38;5033030;28;46400;-70
2022/10/30 03:55:28;;;;;;;;;10.75;10.00;;;;;18.82;65.75;101267.78;5037935;28;45599;-70
2022/10/30 03:57:53;;;;;;;;;11.00;11.00;;;;;18.78;65.88;101263.63;5047066;28;45361;-70
2022/10/30 04:00:18;;;;;;;;;12.50;11.00;;;;;18.78;66.04;101252.81;5054357;28;45436;-70
2022/10/30 04:02:48;;;;;;;;;11.75;11.00;;;;;18.77;65.86;101250.25;5053993;28;47146;-70
2022/10/30 04:05:15;;;;;;;;;12.25;11.25;;;;;18.69;65.62;101244.66;5054052;28;45581;-70
2022/10/30 04:07:41;;;;;;;;;14.00;14.00;;;;;17.93;66.17;101125.00;5054033;28;45454;-70
2022/10/30 04:10:06;;;;;;;;;13.75;13.75;;;;;18.63;66.21;101244.19;5054120;28;45458;-70
2022/10/30 04:12:32;;;;;;;;;17.25;13.25;;;;;18.66;66.37;101256.59;5053823;28;46869;-70
2022/10/30 04:14:57;;;;;;;;;9.25;9.25;;;;;18.65;66.26;101257.56;5052677;28;45569;-70
2022/10/30 04:17:22;;;;;;;;;12.50;12.50;;;;;18.62;66.59;101250.56;5053841;28;45436;-70
2022/10/30 04:19:48;;;;;;;;;13.25;13.25;;;;;18.65;66.48;101257.56;5054028;28;45562;-70
2022/10/30 04:22:13;;;;;;;;;14.50;14.25;;;;;18.49;66.33;101218.38;5053312;28;45860;-70
2022/10/30 04:24:38;;;;;;;;;15.75;14.25;;;;;18.63;66.46;101243.34;5053509;28;45412;-70
2022/10/30 04:27:04;;;;;;;;;22.25;21.00;;;;;18.61;66.40;101242.59;5047188;28;45470;-70
2022/10/30 04:29:30;;;;;;;;;22.50;21.25;;;;;18.54;66.61;101227.91;5041908;28;45759;-70
2022/10/30 04:31:55;;;;;;;;;28.50;28.25;;;;;18.49;66.42;101231.03;5033508;28;46217;-71
2022/10/30 04:34:20;;;;;;;;;34.25;30.00;;;;;18.53;66.56;101229.78;5034141;28;45625;-70
2022/10/30 04:36:46;;;;;;;;;32.75;28.25;;;;;18.52;66.85;101237.97;5033265;28;45930;-71
2022/10/30 04:39:11;;;;;;;;;36.00;32.50;;;;;18.51;66.66;101242.53;5033952;28;45736;-70
2022/10/30 04:41:36;;;;;;;;;37.25;31.25;;;;;18.52;66.54;101237.97;5032517;28;45634;-70
2022/10/30 04:44:02;;;;;;;;;32.00;26.75;;;;;18.47;66.82;101227.59;5033208;28;45537;-70
2022/10/30 04:46:27;;;;;;;;;30.00;26.00;;;;;18.47;66.98;101228.44;5017863;28;45561;-70
2022/10/30 04:48:53;;;;;;;;;26.00;25.25;;;;;18.43;66.81;101234.25;5051388;28;45460;-71
2022/10/30 04:51:18;;;;;;;;;28.50;23.75;;;;;18.40;66.84;101221.00;5046917;28;45465;-70
2022/10/30 04:53:44;;;;;;;;;23.00;21.00;;;;;18.29;66.93;101203.00;5039777;28;45696;-70
2022/10/30 04:56:09;;;;;;;;;20.25;16.75;;;;;18.43;66.97;101245.88;5032924;28;45630;-70
2022/10/30 04:58:35;;;;;;;;;17.50;17.50;;;;;18.24;66.97;101210.63;5045240;28;45372;-70
2022/10/30 05:01:05;;;;;;;;;18.50;18.25;;;;;18.41;67.09;101230.78;5052770;28;47023;-70
2022/10/30 05:03:30;;;;;;;;;17.25;17.25;;;;;18.40;67.00;101240.75;5052960;28;45701;-71
2022/10/30 05:06:03;;;;;;;;;14.50;14.50;;;;;18.39;67.31;101238.19;5046914;28;45535;-71
2022/10/30 05:08:29;;;;;;;;;14.00;13.75;;;;;18.36;67.64;101238.47;5037463;28;45643;-71
2022/10/30 05:10:55;;;;;;;;;20.50;17.50;;;;;18.15;67.41;101215.84;5031346;28;47445;-71
2022/10/30 05:13:20;;;;;;;;;19.00;18.50;;;;;18.32;67.48;101238.69;5032890;28;45607;-71
2022/10/30 05:15:45;;;;;;;;;19.00;15.00;;;;;18.29;67.38;101238.97;5032816;28;45424;-71
2022/10/30 05:18:11;;;;;;;;;16.75;14.75;;;;;18.27;67.30;101238.22;5033024;28;45656;-71
2022/10/30 05:20:36;;;;;;;;;18.25;15.25;;;;;18.25;67.57;101237.50;5031492;28;45414;-71
2022/10/30 05:23:01;;;;;;;;;18.00;14.50;;;;;18.26;67.53;101232.94;5032865;28;45405;-71
2022/10/30 05:25:27;;;;;;;;;14.25;13.25;;;;;18.25;67.70;101233.97;5032666;28;46040;-71
2022/10/30 05:28:00;;;;;;;;;18.25;16.75;;;;;18.22;67.56;101226.09;5031700;28;45470;-70
2022/10/30 05:30:30;;;;;;;;;19.00;15.25;;;;;17.97;67.28;101184.97;5032714;28;46171;-71
2022/10/30 05:33:01;;;;;;;;;14.25;14.00;;;;;18.22;67.60;101226.09;5031311;28;45409;-70
2022/10/30 05:35:28;;;;;;;;;21.50;18.75;;;;;18.23;68.04;101223.25;5032691;28;45369;-70
2022/10/30 05:37:53;;;;;;;;;16.50;15.50;;;;;18.24;68.03;101230.38;5032467;28;45501;-70
2022/10/30 05:40:18;;;;;;;;;18.50;15.75;;;;;18.24;67.73;101238.50;5032532;28;46244;-70
2022/10/30 05:42:45;;;;;;;;;15.75;15.75;;;;;18.23;68.11;101236.75;5035839;28;45438;-70
2022/10/30 05:45:10;;;;;;;;;14.75;12.50;;;;;18.22;68.13;101235.06;5036136;28;45577;-70
2022/10/30 05:47:36;;;;;;;;;16.25;15.25;;;;;18.21;67.66;101232.50;5036003;28;45697;-70
2022/10/30 05:50:02;;;;;;;;;13.25;12.75;;;;;18.21;68.13;101229.81;5036571;28;46036;-70
2022/10/30 05:52:28;;;;;;;;;13.00;12.50;;;;;18.22;68.28;101220.69;5036280;28;45440;-69
2022/10/30 05:54:53;;;;;;;;;12.75;12.25;;;;;18.14;67.66;101218.66;5035987;28;45409;-70
2022/10/30 05:57:18;;;;;;;;;13.25;12.00;;;;;18.20;68.01;101226.22;5044312;28;45750;-70
2022/10/30 05:59:44;;;;;;;;;11.25;11.25;;;;;18.21;67.93;101227.09;5055850;28;47200;-70
2022/10/30 06:02:09;;;;;;;;;15.75;13.25;;;;;18.13;68.11;101217.78;5055626;28;45568;-70
2022/10/30 06:04:35;;;;;;;;;13.25;11.00;;;;;18.07;68.00;101212.03;5056044;28;45469;-69
2022/10/30 06:07:00;;;;;;;;;12.50;11.75;;;;;18.15;68.26;101236.56;5054410;28;45594;-70
2022/10/30 06:09:26;;;;;;;;;14.00;13.25;;;;;18.01;68.25;101208.03;5055608;28;45439;-69
2022/10/30 06:11:52;;;;;;;;;22.75;19.50;;;;;18.12;68.07;101223.31;5055487;28;45440;-70
2022/10/30 06:14:17;;;;;;;;;15.50;15.50;;;;;18.11;67.92;101218.91;5055333;28;45716;-69
2022/10/30 06:16:42;;;;;;;;;15.50;14.50;;;;;18.10;68.14;101223.47;5055656;28;45591;-69
2022/10/30 06:19:08;;;;;;;;;16.25;16.25;;;;;18.08;68.69;101221.88;5055527;28;45544;-70
2022/10/30 06:21:33;;;;;;;;;17.25;16.75;;;;;18.02;68.16;101216.97;5055565;28;45921;-69
2022/10/30 06:23:58;;;;;;;;;14.75;13.50;;;;;18.00;68.49;101227.91;5055683;28;45412;-69
2022/10/30 06:26:24;;;;;;;;;14.00;13.00;;;;;18.02;68.36;101236.75;5055617;28;45437;-69
2022/10/30 06:28:49;;;;;;;;;15.25;15.25;;;;;17.99;68.30;101236.97;5055692;28;45534;-70
2022/10/30 06:31:14;;;;;;;;;14.50;14.50;;;;;17.99;68.53;101245.06;5055438;28;45444;-69
2022/10/30 06:33:40;;;;;;;;;16.00;13.25;;;;;17.93;68.18;101232.94;5055640;28;45460;-70
2022/10/30 06:36:05;;;;;;;;;16.50;15.50;;;;;17.96;68.31;101232.72;5055636;28;45522;-70
2022/10/30 06:38:30;;;;;;;;;12.50;11.25;;;;;17.61;68.15;101176.22;5051217;28;47279;-70
2022/10/30 06:40:56;;;;;;;;;20.25;17.00;;;;;17.93;68.28;101238.34;5054815;28;53306;-70
2022/10/30 06:43:21;;;;;;;;;17.25;16.00;;;;;17.90;68.29;101235.03;5054496;28;45500;-70
2022/10/30 06:45:46;;;;;;;;;19.75;17.50;;;;;17.82;68.42;101241.91;5055254;28;45629;-69
2022/10/30 06:48:12;;;;;;;;;15.00;15.00;;;;;17.48;68.62;101198.81;5054936;28;46432;-70
2022/10/30 06:50:37;;;;;;;;;16.75;16.00;;;;;17.73;68.79;101228.31;5052994;28;45372;-70
2022/10/30 06:53:03;;;;;;;;;16.00;15.00;;;;;17.85;68.61;101239.94;5054093;28;45402;-70
2022/10/30 06:55:28;;;;;;;;;19.50;18.25;;;;;17.76;68.66;101231.63;5055292;28;45436;-71
2022/10/30 06:57:56;;;;;;;;;14.75;14.75;;;;;17.76;68.61;101228.94;5054738;28;56055;-69
2022/10/30 07:00:22;;;;;;;;;19.25;16.25;;;;;17.87;68.93;101240.66;5055036;28;45572;-71
2022/10/30 07:03:01;;;;;;;;;22.00;17.75;;;;;17.86;68.85;101239.81;5054851;28;45443;-69
2022/10/30 07:05:26;;;;;;;;;16.75;16.75;;;;;17.87;69.11;101243.34;5054924;28;45586;-71
2022/10/30 07:07:54;;;;;;;;;16.25;15.75;;;;;17.87;69.42;101233.44;5054931;28;45555;-71
2022/10/30 07:10:19;;;;;;;;;16.00;15.00;;;;;17.90;69.47;101237.72;5054803;28;45478;-71
2022/10/30 07:12:55;;;;;;;;;15.50;15.25;;;;;17.88;69.04;101255.88;5054304;28;45472;-71
2022/10/30 07:15:21;;;;;;;;;15.25;14.00;;;;;17.89;69.61;101253.03;5054858;28;45568;-71
2022/10/30 07:17:52;;;;;;;;;16.00;16.00;;;;;17.93;69.41;101254.53;5070085;28;46393;-72
2022/10/30 07:20:17;;;;;;;;;20.50;20.50;;;;;17.02;69.17;101121.66;5053534;28;45417;-72
2022/10/30 07:22:43;;;;;;;;;23.75;19.50;;;;;17.82;69.50;101254.53;5052628;28;45419;-71
2022/10/30 07:25:08;;;;;;;;;27.75;23.00;;;;;17.67;69.80;101205.41;5054399;28;45453;-70
2022/10/30 07:27:43;;;;;;;;;18.75;17.75;;;;;17.96;70.06;101240.81;5055220;28;45443;-71
2022/10/30 07:30:13;;;;;;;;;16.50;14.25;;;;;17.81;69.22;101207.81;5054564;28;45401;-71
2022/10/30 07:32:39;;;;;;;;;17.25;16.75;;;;;18.06;69.10;101240.03;5053946;28;45512;-72
2022/10/30 07:35:05;;;;;;;;;23.75;20.75;;;;;18.09;68.96;101246.03;5052511;28;45472;-72
2022/10/30 07:37:31;;;;;;;;;14.00;14.00;;;;;18.14;69.96;101230.31;5054602;28;46309;-72
2022/10/30 07:39:56;;;;;;;;;16.75;14.50;;;;;18.20;69.69;101223.53;5051529;28;45467;-70
2022/10/30 07:42:22;;;;;;;;;17.00;16.25;;;;;18.26;69.08;101227.56;5038412;28;45656;-71
2022/10/30 07:44:47;;;;;;;;;19.00;17.50;;;;;18.31;68.68;101233.44;5033570;28;45521;-71
2022/10/30 07:47:13;;;;;;;;;19.00;15.50;;;;;18.35;69.60;101231.34;5033793;28;45381;-71
2022/10/30 07:49:38;;;;;;;;;18.00;12.25;;;;;17.89;68.95;101138.84;5033944;28;45465;-71
2022/10/30 07:52:04;;;;;;;;;17.00;15.25;;;;;18.40;68.70;101215.59;5036305;28;45664;-71
2022/10/30 07:54:29;;;;;;;;;16.75;16.50;;;;;18.49;68.42;101239.97;5041249;28;45589;-71
2022/10/30 07:56:54;;;;;;;;;17.50;14.75;;;;;18.53;68.59;101231.59;5031402;28;46172;-71
2022/10/30 07:59:20;;;;;;;;;18.75;16.25;;;;;18.59;68.39;101244.59;5051652;28;45470;-71
2022/10/30 08:01:45;;;;;;;;;15.50;14.50;;;;;18.66;68.03;101237.66;5045884;28;45886;-71
2022/10/30 08:04:12;;;;;;;;;14.50;11.75;;;;;18.75;68.50;101254.94;5027110;28;46397;-73
2022/10/30 08:06:38;;;;;;;;;19.25;18.25;;;;;18.39;67.66;101187.72;5044749;28;46976;-72
2022/10/30 08:09:03;;;;;;;;;17.25;14.50;;;;;18.91;67.47;101273.41;5051062;28;45337;-71
2022/10/30 08:11:29;;;;;;;;;11.25;10.75;;;;;18.93;66.72;101275.00;5055518;28;45410;-72
2022/10/30 08:13:54;;;;;;;;;20.25;17.75;;;;;18.96;66.93;101266.66;5056117;28;45564;-72
2022/10/30 08:16:19;;;;;;;;;14.50;13.50;;;;;19.05;66.26;101278.50;5056214;28;47134;-72
2022/10/30 08:18:45;;;;;;;;;14.75;14.75;;;;;19.10;67.46;101294.31;5055420;28;45585;-73
2022/10/30 08:21:10;;;;;;;;;14.00;12.75;;;;;19.07;66.58;101297.28;5056393;28;45424;-72
2022/10/30 08:23:36;;;;;;;;;17.50;16.00;;;;;19.09;66.51;101290.75;5055611;28;45341;-72
2022/10/30 08:26:01;;;;;;;;;21.25;17.25;;;;;19.10;66.59;101297.03;5048327;28;46538;-73
2022/10/30 08:28:27;;;;;;;;;17.00;14.25;;;;;19.11;66.90;101299.59;5056001;28;45293;-72
2022/10/30 08:30:52;;;;;;;;;18.00;16.75;;;;;19.10;66.22;101295.16;5055573;28;45432;-72
2022/10/30 08:33:19;;;;;;;;;15.75;14.75;;;;;18.98;66.33;101274.63;5052680;28;45446;-72
2022/10/30 08:35:49;;;;;;;;;20.00;16.50;;;;;18.97;66.23;101281.00;5054359;28;47537;-72
2022/10/30 08:38:15;;;;;;;;;21.25;18.50;;;;;18.80;66.53;101258.97;5053771;28;45392;-72
2022/10/30 08:40:40;;;;;;;;;20.50;17.75;;;;;19.08;66.08;101283.63;5055191;28;45294;-74
2022/10/30 08:43:07;;;;;;;;;16.25;15.75;;;;;19.28;65.82;101298.09;5055372;28;45427;-72
2022/10/30 08:45:33;;;;;;;;;19.75;17.75;;;;;19.31;66.40;101311.38;5054999;28;46093;-72
2022/10/30 08:48:02;;;;;;;;;18.25;18.25;;;;;19.32;66.48;101312.22;5054567;28;45384;-72
2022/10/30 08:50:27;;;;;;;;;18.25;18.25;;;;;19.01;66.40;101259.97;5037616;28;45500;-72
2022/10/30 08:52:52;;;;;;;;;19.75;18.50;;;;;19.40;65.78;101314.28;5054860;28;45481;-72
2022/10/30 08:55:18;;;;;;;;;21.50;18.00;;;;;19.46;65.29;101314.59;5055273;28;46032;-73
2022/10/30 08:57:44;;;;;;;;;18.50;18.00;;;;;19.49;64.96;101289.97;5053612;28;45388;-72
2022/10/30 09:00:10;;;;;;;;;16.25;16.00;;;;;19.79;65.33;101303.59;5055164;28;45365;-73
2022/10/30 09:02:38;;;;;;;;;20.75;20.25;;;;;19.83;64.35;101299.66;5053589;28;45374;-72
2022/10/30 09:05:04;;;;;;;;;23.00;20.00;;;;;19.80;64.79;101289.09;5055021;28;46427;-72
2022/10/30 09:07:31;;;;;;;;;21.00;18.75;;;;;19.89;64.17;101277.44;5054616;28;45307;-72
2022/10/30 09:09:56;;;;;;;;;17.50;17.00;;;;;19.99;64.23;101274.75;5054904;28;45425;-72
2022/10/30 09:12:21;;;;;;;;;21.50;17.50;;;;;20.09;64.52;101288.31;5054737;28;45484;-72
2022/10/30 09:14:46;;;;;;;;;20.00;19.00;;;;;20.23;64.69;101295.16;5054177;28;46155;-72
2022/10/30 09:17:12;;;;;;;;;20.00;18.75;;;;;20.40;64.07;101310.72;5054474;28;45446;-71
2022/10/30 09:19:38;;;;;;;;;21.25;19.75;;;;;20.55;63.22;101331.97;5055249;28;45877;-72
2022/10/30 09:22:03;;;;;;;;;25.50;18.25;;;;;20.47;61.85;101336.28;5054831;28;45397;-72
2022/10/30 09:24:28;;;;;;;;;19.75;19.75;;;;;20.47;62.29;101324.56;5054594;28;45452;-72
2022/10/30 09:26:54;;;;;;;;;22.50;21.00;;;;;19.68;62.26;101188.19;5055103;28;45350;-73
2022/10/30 09:29:20;;;;;;;;;22.25;20.25;;;;;20.34;62.77;101333.81;5054933;28;45336;-72
2022/10/30 09:31:45;;;;;;;;;22.00;18.75;;;;;20.42;62.49;101337.66;5054894;28;45270;-72
2022/10/30 09:34:11;;;;;;;;;16.50;16.25;;;;;20.52;61.99;101327.69;5054932;28;45346;-73
2022/10/30 09:36:37;;;;;;;;;18.75;17.00;;;;;20.75;61.12;101336.44;5055066;28;45396;-71
2022/10/30 09:39:02;;;;;;;;;16.75;16.25;;;;;21.23;61.07;101325.66;5055615;28;45374;-72
2022/10/30 09:41:50;;;;;;;;;18.75;16.25;;;;;21.29;59.72;101335.94;5054998;28;45490;-72
2022/10/30 09:44:52;;;;;;;;;16.25;15.00;;;;;21.37;59.48;101321.63;5054580;28;47407;-72
2022/10/30 09:47:48;;;;;;;;;15.50;15.50;;;;;21.86;57.60;101333.16;5054934;28;45295;-71
2022/10/30 09:50:24;;;;;;;;;15.50;13.75;;;;;21.52;57.20;101326.41;5054329;28;45443;-72
2022/10/30 09:53:11;;;;;;;;;16.25;13.50;;;;;20.91;58.58;101332.31;5053339;28;45327;-72
2022/10/30 09:56:02;;;;;;;;;12.00;9.75;;;;;20.74;59.05;101348.25;5054240;28;45439;-72
2022/10/30 09:58:39;;;;;;;;;12.00;12.00;;;;;20.69;59.38;101337.03;5054483;28;45309;-72
2022/10/30 10:01:15;;;;;;;;;13.25;11.25;;;;;20.66;58.87;101343.53;5054575;28;45385;-72
2022/10/30 10:04:01;;;;;;;;;15.00;11.75;;;;;20.70;59.86;101343.28;5070438;28;45416;-71
2022/10/30 10:06:27;;;;;;;;;14.00;12.50;;;;;20.63;59.63;101335.69;5055466;28;45510;-71
2022/10/30 10:08:59;;;;;;;;;10.75;10.75;;;;;20.65;59.59;101335.56;5054908;28;45294;-72
2022/10/30 10:11:30;;;;;;;;;10.75;9.50;;;;;20.60;60.02;101335.13;5054872;28;45334;-72
2022/10/30 10:14:07;;;;;;;;;11.25;11.25;;;;;20.61;59.75;101340.41;5054722;28;45549;-71
2022/10/30 10:16:38;;;;;;;;;11.00;9.25;;;;;20.67;59.10;101337.09;5054902;28;45593;-71
2022/10/30 10:19:11;;;;;;;;;14.75;11.00;;;;;20.38;59.37;101282.94;5054719;28;45435;-72
2022/10/30 10:21:48;;;;;;;;;11.25;9.25;;;;;20.67;57.76;101330.84;5054867;28;45357;-71
2022/10/30 10:24:21;;;;;;;;;10.50;8.00;;;;;20.50;57.84;101319.72;5054366;28;45338;-71
2022/10/30 10:26:59;;;;;;;;;6.00;6.00;;;;;20.54;60.43;101325.69;5056894;28;46620;-71
2022/10/30 10:29:49;;;;;;;;;9.25;7.25;;;;;20.57;59.25;101302.88;5058518;28;45366;-71
2022/10/30 10:32:27;;;;;;;;;13.50;9.00;;;;;20.78;58.88;101338.84;5058644;28;45213;-71
2022/10/30 10:35:29;;;;;;;;;9.00;9.00;;;;;20.81;57.66;101338.59;5058317;28;45440;-71
2022/10/30 10:38:16;;;;;;;;;8.75;8.75;;;;;20.80;57.85;101346.88;5057873;28;47343;-71
2022/10/30 10:41:08;;;;;;;;;20.75;19.00;;;;;20.73;58.32;101357.41;5058149;28;45440;-71
2022/10/30 10:43:57;;;;;;;;;10.25;10.25;;;;;20.76;58.56;101351.69;5056166;28;45399;-71
2022/10/30 10:46:31;;;;;;;;;22.75;22.75;;;;;20.78;58.30;101376.81;5057656;28;45464;-71
2022/10/30 10:49:09;;;;;;;;;12.00;12.00;;;;;20.62;58.14;101371.94;5056349;28;48683;-71
2022/10/30 10:51:42;;;;;;;;;11.00;10.00;;;;;20.65;58.76;101376.22;5057544;28;45394;-71
2022/10/30 10:54:20;;;;;;;;;11.75;11.75;;;;;20.65;58.25;101392.47;5058117;28;45376;-71
2022/10/30 10:56:48;;;;;;;;;15.00;15.00;;;;;20.62;58.44;101393.63;5057890;28;45481;-71
2022/10/30 10:59:31;;;;;;;;;10.50;9.50;;;;;20.53;58.46;101396.28;5057609;28;46257;-71
2022/10/30 11:02:29;;;;;;;;;13.50;13.00;;;;;20.49;58.62;101393.88;5057731;28;45298;-71
2022/10/30 11:05:03;;;;;;;;;12.75;11.00;;;;;20.46;58.92;101388.75;5073240;28;45318;-71
2022/10/30 11:07:32;;;;;;;;;12.75;8.25;;;;;20.44;59.54;101392.59;5057780;28;45474;-71
2022/10/30 11:09:58;;;;;;;;;16.75;16.75;;;;;20.29;60.33;101387.56;5057886;28;45686;-72
2022/10/30 11:12:34;;;;;;;;;15.00;15.00;;;;;20.31;60.32;101417.22;5057310;28;45333;-72
2022/10/30 11:15:25;;;;;;;;;9.00;9.00;;;;;20.46;60.56;101399.59;5052986;28;45489;-72
2022/10/30 11:18:00;;;;;;;;;10.75;9.50;;;;;20.57;60.39;101397.72;5057210;28;45374;-72
2022/10/30 11:21:08;;;;;;;;;10.50;9.00;;;;;20.69;60.35;101402.06;5056967;28;45380;-71
2022/10/30 11:23:42;;;;;;;;;11.25;10.75;;;;;20.81;60.18;101389.22;5054641;28;45528;-70